aviador You're here:

KLOR Decoded Metar

LOWE AHP/FT. RUC in AL, USA
Report Time2018-05-26 15:08:00
UTC Time2018-05-26 15:52:06
Flight Rules vfr VFR
WindCalm
Visibility9999 m
Phenomena:N/A
Clouds:Scattered 020 Hf
Scattered 030 Hf
Expected CloudBase > 2,400 ft AGL from Temp-Dew spread
CeilingNone
Temp27°C (ISA +12)
Dew Point21°C (70% RH)
Heat Index28.9°C
QNH1015 hPa
Density Alt1,942 ft
Elevation243 ft
Report Wrong Elevation
Raw Report
KLOR 261508Z AUTO 00000KT 10SM SCT020 SCT030 27/21 A2996 RMK AO2
SLP126=

Extra information for KLOR:More info

Metar Taf Metar & Taf Last 4 Metars F.Rules Stats Wind Profile Meteogram Temp Stats Airport Information Weather charts Add Link Nearby VenuesMetar ALERT Operation Metar Decoded Social comments

AIRNAV info for KLOR